Time;durP1;ratioP1;P1;durP2;ratioP2;P2;SDS_P1;SDS_P2;PMS_P1;PMS_P2;Temp;Humidity;BMP_temperature;BMP_pressure;BME280_temperature;BME280_humidity;BME280_pressure;Samples;Min_cycle;Max_cycle;Signal;HPM_P1;HPM_P2
2023/03/27 00:00:41;;;;;;;0.22;0.22;;;13.80;91.10;;;;;;6214911;23;20004;-81
2023/03/27 00:03:09;;;;;;;0.47;0.20;;;13.90;91.10;;;;;;6215226;23;20296;-81
2023/03/27 00:05:35;;;;;;;1.75;0.30;;;13.80;91.10;;;;;;6214954;23;20000;-81
2023/03/27 00:08:02;;;;;;;1.15;0.25;;;13.90;91.00;;;;;;6188799;23;20063;-84
2023/03/27 00:10:28;;;;;;;0.88;0.50;;;13.80;91.00;;;;;;6216044;23;20030;-84
2023/03/27 00:12:54;;;;;;;0.68;0.30;;;13.80;91.10;;;;;;6215053;23;20435;-84
2023/03/27 00:15:20;;;;;;;0.52;0.20;;;13.70;91.10;;;;;;6213752;23;20411;-82
2023/03/27 00:17:48;;;;;;;0.90;0.28;;;13.70;91.20;;;;;;6216291;23;20001;-83
2023/03/27 00:20:16;;;;;;;1.52;0.50;;;13.80;91.40;;;;;;6215678;23;20004;-83
2023/03/27 00:22:42;;;;;;;0.28;0.28;;;13.80;91.40;;;;;;6216144;23;20009;-82
2023/03/27 00:25:09;;;;;;;0.25;0.25;;;13.80;91.30;;;;;;6214932;23;20032;-81
2023/03/27 00:27:35;;;;;;;0.57;0.40;;;13.80;91.30;;;;;;6215039;23;20359;-81
2023/03/27 00:30:03;;;;;;;0.40;0.40;;;13.80;91.30;;;;;;6214841;23;20016;-81
2023/03/27 00:32:33;;;;;;;1.13;0.50;;;13.80;91.00;;;;;;6216678;23;20032;-82
2023/03/27 00:34:59;;;;;;;1.15;0.45;;;13.80;91.10;;;;;;6215383;23;20007;-82
2023/03/27 00:37:24;;;;;;;1.08;0.30;;;13.80;91.00;;;;;;6214808;23;20034;-81
2023/03/27 00:39:50;;;;;;;0.80;0.38;;;13.80;90.90;;;;;;6214992;23;20004;-81
2023/03/27 00:42:21;;;;;;;0.30;0.30;;;13.80;90.80;;;;;;6187440;23;20086;-82
2023/03/27 00:44:50;;;;;;;0.75;0.28;;;13.80;90.70;;;;;;6213544;23;20307;-81
2023/03/27 00:47:21;;;;;;;0.40;0.30;;;13.90;90.60;;;;;;6213289;23;20011;-81
2023/03/27 00:49:49;;;;;;;0.90;0.20;;;13.90;90.40;;;;;;6215093;23;20005;-81
2023/03/27 00:52:17;;;;;;;0.95;0.20;;;13.80;90.30;;;;;;6214666;23;20001;-80
2023/03/27 00:54:44;;;;;;;1.70;0.38;;;13.90;90.20;;;;;;6188319;23;20288;-80
2023/03/27 00:57:15;;;;;;;0.28;0.20;;;13.90;90.10;;;;;;6214371;23;20147;-82
2023/03/27 00:59:42;;;;;;;0.75;0.20;;;13.90;90.00;;;;;;6188868;23;20023;-82
2023/03/27 01:02:08;;;;;;;0.10;0.10;;;13.80;89.80;;;;;;6214501;23;20088;-81
2023/03/27 01:04:37;;;;;;;0.43;0.15;;;13.90;89.70;;;;;;6188457;23;20015;-81
2023/03/27 01:07:05;;;;;;;0.22;0.10;;;13.80;89.80;;;;;;6214345;23;20407;-81
2023/03/27 01:09:32;;;;;;;0.38;0.20;;;13.80;89.90;;;;;;6215168;23;20079;-81
2023/03/27 01:12:25;;;;;;;0.70;0.20;;;13.80;90.00;;;;;;6214798;23;20078;-81
2023/03/27 01:15:34;;;;;;;0.10;0.10;;;13.80;89.40;;;;;;6188130;23;20008;-81
2023/03/27 01:18:44;;;;;;;0.28;0.17;;;13.70;89.80;;;;;;6158484;23;20005;-81
2023/03/27 01:21:34;;;;;;;0.43;0.25;;;13.70;89.60;;;;;;6093438;23;20086;-81
2023/03/27 01:24:29;;;;;;;1.10;0.20;;;13.70;90.10;;;;;;6188410;23;19997;-81
2023/03/27 01:27:15;;;;;;;0.50;0.20;;;13.70;90.10;;;;;;6214485;23;20017;-81
2023/03/27 01:29:56;;;;;;;1.65;0.20;;;13.70;90.00;;;;;;6214227;23;19997;-81
2023/03/27 01:32:40;;;;;;;1.00;0.20;;;13.70;89.80;;;;;;6188545;23;20062;-81
2023/03/27 01:35:23;;;;;;;0.60;0.45;;;13.70;89.70;;;;;;6215567;23;20023;-81
2023/03/27 01:38:07;;;;;;;1.55;0.20;;;13.70;89.60;;;;;;6215551;23;20079;-81
2023/03/27 01:40:49;;;;;;;0.30;0.13;;;13.70;89.80;;;;;;6215666;23;19996;-81
2023/03/27 01:43:32;;;;;;;1.45;0.13;;;13.60;90.00;;;;;;6215333;23;20074;-80
2023/03/27 01:46:25;;;;;;;1.42;0.30;;;13.60;89.90;;;;;;6214504;23;20494;-81
2023/03/27 01:49:03;;;;;;;0.55;0.20;;;13.60;90.00;;;;;;6215196;23;20408;-81
2023/03/27 01:51:38;;;;;;;2.45;0.40;;;13.60;89.10;;;;;;6215444;23;20004;-81
2023/03/27 01:54:35;;;;;;;0.90;0.30;;;13.60;89.50;;;;;;6214813;23;20416;-81
2023/03/27 01:57:19;;;;;;;0.88;0.30;;;13.60;89.40;;;;;;6208868;23;20009;-81
2023/03/27 01:59:53;;;;;;;1.88;0.30;;;13.60;89.90;;;;;;6215281;23;20307;-80
2023/03/27 02:02:24;;;;;;;2.05;0.32;;;13.60;90.00;;;;;;6215489;23;20051;-81
2023/03/27 02:05:18;;;;;;;0.52;0.20;;;13.60;89.80;;;;;;6215165;23;20005;-81
2023/03/27 02:07:51;;;;;;;0.30;0.20;;;13.50;89.70;;;;;;6214693;23;20013;-82
2023/03/27 02:10:24;;;;;;;1.88;0.40;;;13.50;89.40;;;;;;6213301;23;20013;-82
2023/03/27 02:12:57;;;;;;;0.70;0.22;;;13.50;89.30;;;;;;6214931;23;20005;-82
2023/03/27 02:15:29;;;;;;;1.23;0.20;;;13.60;89.30;;;;;;6214765;23;20008;-82
2023/03/27 02:18:08;;;;;;;0.82;0.20;;;13.60;89.50;;;;;;6214751;23;20004;-81
2023/03/27 02:20:37;;;;;;;0.23;0.10;;;13.60;89.30;;;;;;6212511;23;20019;-82
2023/03/27 02:23:03;;;;;;;0.45;0.10;;;13.60;89.40;;;;;;6214110;23;20230;-81
2023/03/27 02:25:32;;;;;;;0.80;0.20;;;13.60;89.30;;;;;;6214703;23;20004;-82
2023/03/27 02:28:16;;;;;;;0.70;0.20;;;13.70;89.30;;;;;;6213254;23;20100;-82
2023/03/27 02:31:31;;;;;;;0.52;0.40;;;13.70;89.10;;;;;;6215111;23;20032;-82
2023/03/27 02:34:08;;;;;;;0.10;0.10;;;13.70;88.80;;;;;;6093781;23;20002;-82
2023/03/27 02:36:53;;;;;;;0.82;0.22;;;13.70;89.10;;;;;;6198625;23;20032;-81
2023/03/27 02:39:50;;;;;;;0.32;0.30;;;13.70;89.40;;;;;;6186645;23;20497;-83
2023/03/27 02:42:21;;;;;;;1.35;0.32;;;13.60;89.40;;;;;;6187288;23;19997;-82
2023/03/27 02:44:51;;;;;;;0.30;0.30;;;13.70;89.40;;;;;;6214186;23;20009;-82
2023/03/27 02:47:43;;;;;;;0.90;0.20;;;13.70;89.40;;;;;;6213903;23;20036;-82
2023/03/27 02:50:16;;;;;;;0.85;0.30;;;13.70;89.40;;;;;;6188054;23;20005;-82
2023/03/27 02:52:47;;;;;;;0.95;0.20;;;13.70;89.20;;;;;;6214892;23;19996;-83
2023/03/27 02:55:17;;;;;;;;;;;13.70;89.40;;;;;;6214626;23;20050;-83
2023/03/27 02:57:48;;;;;;;1.40;0.30;;;13.60;89.80;;;;;;6215019;23;19911;-82
2023/03/27 03:00:19;;;;;;;0.35;0.35;;;13.60;90.00;;;;;;6187548;23;20013;-82
2023/03/27 03:02:47;;;;;;;2.13;0.30;;;13.60;90.30;;;;;;6187794;23;20004;-81
2023/03/27 03:05:20;;;;;;;2.28;0.60;;;13.60;90.20;;;;;;6211432;23;20015;-81
2023/03/27 03:07:47;;;;;;;1.92;0.60;;;13.60;90.30;;;;;;6212644;23;20074;-81
2023/03/27 03:10:14;;;;;;;0.98;0.52;;;13.60;90.40;;;;;;6213674;23;20004;-81
2023/03/27 03:12:40;;;;;;;2.58;1.13;;;13.60;90.60;;;;;;6187188;23;20308;-82
2023/03/27 03:15:07;;;;;;;1.75;0.80;;;13.50;90.60;;;;;;6213093;23;20027;-82
2023/03/27 03:17:33;;;;;;;5.68;1.27;;;13.50;90.90;;;;;;6213772;23;20001;-82
2023/03/27 03:19:59;;;;;;;4.07;1.73;;;13.50;91.00;;;;;;6213990;23;20076;-82
2023/03/27 03:22:25;;;;;;;5.55;2.17;;;13.50;91.30;;;;;;6213678;23;20110;-82
2023/03/27 03:24:50;;;;;;;2.40;2.15;;;13.50;91.10;;;;;;6214301;23;20001;-81
2023/03/27 03:27:19;;;;;;;3.45;2.22;;;13.50;91.40;;;;;;6213437;23;20017;-81
2023/03/27 03:29:46;;;;;;;5.10;3.10;;;13.60;91.40;;;;;;6213497;23;20020;-81
2023/03/27 03:32:11;;;;;;;4.63;3.00;;;13.50;91.80;;;;;;6214444;23;20354;-81
2023/03/27 03:34:40;;;;;;;8.38;5.03;;;13.50;91.80;;;;;;6214335;23;20028;-81
2023/03/27 03:37:09;;;;;;;5.93;4.68;;;13.50;92.00;;;;;;6214482;23;20004;-81
2023/03/27 03:39:35;;;;;;;5.68;5.07;;;13.50;91.80;;;;;;6214791;23;20027;-83
2023/03/27 03:42:01;;;;;;;8.15;6.53;;;13.40;92.30;;;;;;6214905;23;20028;-83
2023/03/27 03:44:27;;;;;;;8.90;7.50;;;13.40;92.10;;;;;;6215242;23;20056;-83
2023/03/27 03:46:53;;;;;;;6.55;5.53;;;13.30;92.10;;;;;;6214968;23;20485;-82
2023/03/27 03:49:19;;;;;;;8.73;6.95;;;13.30;92.10;;;;;;6214477;23;20000;-82
2023/03/27 03:51:45;;;;;;;8.38;7.57;;;13.30;92.00;;;;;;6214436;23;20050;-82
2023/03/27 03:54:10;;;;;;;9.90;7.20;;;13.20;91.80;;;;;;6188647;23;20005;-83
2023/03/27 03:56:40;;;;;;;9.02;7.55;;;13.30;91.90;;;;;;6214649;23;20054;-82
2023/03/27 03:59:10;;;;;;;12.80;7.88;;;13.20;91.90;;;;;;6214126;23;20091;-82
2023/03/27 04:01:36;;;;;;;10.75;7.60;;;13.20;91.80;;;;;;6212999;23;20011;-82
2023/03/27 04:04:03;;;;;;;10.07;7.15;;;13.20;91.70;;;;;;6214281;23;20419;-82
2023/03/27 04:06:29;;;;;;;9.20;8.05;;;13.20;91.50;;;;;;6213266;23;20331;-82
2023/03/27 04:08:56;;;;;;;9.90;8.38;;;13.20;91.70;;;;;;6213491;23;20009;-82
2023/03/27 04:11:21;;;;;;;11.40;8.48;;;13.20;91.40;;;;;;6212914;23;20023;-82
2023/03/27 04:13:48;;;;;;;11.45;9.40;;;13.20;91.50;;;;;;6212183;23;20439;-81
2023/03/27 04:16:14;;;;;;;12.23;9.95;;;13.20;91.50;;;;;;6211077;23;20005;-82
2023/03/27 04:18:41;;;;;;;9.10;8.00;;;13.10;91.40;;;;;;6213552;23;20005;-82
2023/03/27 04:21:13;;;;;;;9.65;8.45;;;13.20;91.50;;;;;;6213023;23;20490;-82
2023/03/27 04:23:43;;;;;;;8.35;7.40;;;13.20;91.50;;;;;;6213173;23;20009;-83
2023/03/27 04:26:10;;;;;;;10.80;9.13;;;13.10;91.50;;;;;;6211329;23;20427;-83
2023/03/27 04:28:37;;;;;;;11.05;8.57;;;13.10;91.50;;;;;;6214038;23;20001;-83
2023/03/27 04:31:05;;;;;;;12.48;9.30;;;13.10;91.20;;;;;;6213839;23;20067;-83
2023/03/27 04:33:33;;;;;;;12.65;8.98;;;13.00;91.20;;;;;;6213622;23;20005;-82
2023/03/27 04:36:00;;;;;;;9.48;8.18;;;13.00;91.40;;;;;;6213936;23;20001;-82
2023/03/27 04:38:26;;;;;;;10.75;8.65;;;13.00;91.30;;;;;;6213372;23;20005;-81
2023/03/27 04:40:53;;;;;;;11.75;8.50;;;12.90;91.40;;;;;;6213311;23;20430;-82
2023/03/27 04:43:19;;;;;;;10.75;8.35;;;12.80;91.70;;;;;;6213399;23;20005;-83
2023/03/27 04:45:47;;;;;;;14.45;11.90;;;12.50;92.20;;;;;;6212893;23;20008;-81
2023/03/27 04:48:14;;;;;;;12.23;9.15;;;12.50;92.30;;;;;;6187215;23;20028;-81
2023/03/27 04:50:42;;;;;;;15.40;11.55;;;12.40;92.10;;;;;;6213546;23;20059;-81
2023/03/27 04:53:09;;;;;;;10.30;8.13;;;12.40;92.40;;;;;;6214051;23;20030;-82
2023/03/27 04:55:36;;;;;;;13.23;10.05;;;12.40;92.30;;;;;;6213755;23;20000;-81
2023/03/27 04:58:04;;;;;;;20.20;14.45;;;12.30;92.30;;;;;;6213462;23;20004;-80
2023/03/27 05:00:29;;;;;;;15.70;12.85;;;12.30;92.60;;;;;;6213231;23;20001;-81
2023/03/27 05:02:55;;;;;;;20.83;13.80;;;12.20;92.60;;;;;;6188369;23;20031;-82
2023/03/27 05:05:23;;;;;;;18.85;14.25;;;;;;;;;;6215918;23;20005;-82
2023/03/27 05:07:49;;;;;;;19.73;13.75;;;12.10;92.70;;;;;;6188933;23;20004;-82
2023/03/27 05:10:16;;;;;;;15.18;11.68;;;12.10;92.90;;;;;;6215126;23;20326;-82
2023/03/27 05:12:46;;;;;;;18.10;14.73;;;12.10;92.60;;;;;;6215885;23;20024;-81
2023/03/27 05:15:13;;;;;;;15.50;13.02;;;12.00;93.10;;;;;;6215231;23;20035;-80
2023/03/27 05:17:42;;;;;;;14.32;11.80;;;12.00;93.00;;;;;;6189220;23;20001;-81
2023/03/27 05:20:13;;;;;;;15.18;12.80;;;12.10;92.90;;;;;;6215494;23;20167;-81
2023/03/27 05:22:40;;;;;;;17.55;13.38;;;12.20;92.80;;;;;;6215423;23;20327;-80
2023/03/27 05:25:07;;;;;;;17.33;13.27;;;12.20;92.80;;;;;;6214731;23;20007;-81
2023/03/27 05:27:33;;;;;;;17.25;14.27;;;12.30;92.60;;;;;;6213904;23;20030;-81
2023/03/27 05:29:59;;;;;;;18.05;13.60;;;12.30;92.70;;;;;;6215136;23;19997;-78
2023/03/27 05:32:25;;;;;;;19.98;14.95;;;12.40;92.70;;;;;;6214795;23;20058;-86
2023/03/27 05:34:53;;;;;;;23.70;17.40;;;12.40;92.60;;;;;;6214680;23;20478;-79
2023/03/27 05:37:20;;;;;;;19.63;14.75;;;12.40;92.50;;;;;;6214285;23;20012;-79
2023/03/27 05:39:46;;;;;;;19.10;14.30;;;12.50;92.30;;;;;;6214202;23;20011;-80
2023/03/27 05:42:13;;;;;;;18.80;14.45;;;12.50;92.50;;;;;;6214169;23;20082;-79
2023/03/27 05:44:39;;;;;;;17.73;14.43;;;12.50;92.40;;;;;;6214589;23;20001;-80
2023/03/27 05:47:05;;;;;;;22.02;15.18;;;12.50;92.40;;;;;;6213804;23;20005;-79
2023/03/27 05:49:31;;;;;;;20.33;14.70;;;12.60;92.20;;;;;;6214108;23;20004;-80
2023/03/27 05:51:57;;;;;;;22.10;14.68;;;12.60;92.40;;;;;;6214705;23;20050;-79
2023/03/27 05:54:23;;;;;;;21.70;16.73;;;12.70;92.40;;;;;;6214129;23;20007;-79
2023/03/27 05:56:49;;;;;;;33.13;20.50;;;12.70;92.30;;;;;;6213414;23;20005;-79
2023/03/27 05:59:16;;;;;;;25.88;18.55;;;12.50;92.40;;;;;;6213801;23;20011;-80
2023/03/27 06:01:41;;;;;;;21.80;16.45;;;12.50;92.50;;;;;;6214963;23;20009;-79
2023/03/27 06:04:07;;;;;;;25.27;16.25;;;12.50;92.40;;;;;;6213979;23;20031;-82
2023/03/27 06:06:34;;;;;;;25.05;17.63;;;12.50;92.60;;;;;;6214793;23;20012;-81
2023/03/27 06:09:00;;;;;;;29.15;18.88;;;12.40;93.40;;;;;;6186510;23;20374;-79
2023/03/27 06:11:26;;;;;;;25.98;17.80;;;12.40;93.00;;;;;;6213727;23;19997;-79
2023/03/27 06:13:52;;;;;;;26.73;17.67;;;12.40;93.00;;;;;;6188958;23;20335;-78
2023/03/27 06:16:19;;;;;;;22.00;16.50;;;12.50;92.90;;;;;;6186018;23;20342;-80
2023/03/27 06:21:10;;;;;;;24.00;16.63;;;12.50;92.30;;;;;;6181067;23;20025;-88
2023/03/27 06:23:36;;;;;;;20.60;15.63;;;12.50;92.30;;;;;;6214394;23;20005;-87
2023/03/27 06:26:03;;;;;;;21.95;17.25;;;12.50;92.50;;;;;;6204462;23;20025;-79
2023/03/27 06:28:28;;;;;;;20.45;15.27;;;12.50;92.50;;;;;;6183959;23;20013;-79
2023/03/27 06:30:56;;;;;;;19.17;15.32;;;12.50;92.70;;;;;;6184834;23;20488;-79
2023/03/27 06:33:24;;;;;;;19.25;15.35;;;12.60;92.80;;;;;;6185101;23;20419;-79
2023/03/27 06:35:51;;;;;;;22.42;16.83;;;12.60;92.70;;;;;;6158920;23;20004;-78
2023/03/27 06:38:19;;;;;;;19.05;15.55;;;12.60;92.80;;;;;;6184482;23;20005;-79
2023/03/27 06:40:45;;;;;;;20.10;14.60;;;12.60;92.80;;;;;;6184854;23;19997;-79
2023/03/27 06:43:11;;;;;;;19.55;15.73;;;12.50;92.60;;;;;;6158972;23;20016;-79
2023/03/27 06:45:44;;;;;;;16.52;13.95;;;12.60;92.70;;;;;;6185185;23;20467;-79
2023/03/27 06:48:11;;;;;;;19.30;13.93;;;12.60;92.60;;;;;;6184325;23;20020;-79
2023/03/27 06:50:37;;;;;;;14.70;12.18;;;12.60;92.60;;;;;;6158844;23;20013;-79
2023/03/27 06:53:03;;;;;;;14.30;11.80;;;12.70;92.60;;;;;;6185055;23;20450;-79
2023/03/27 06:55:31;;;;;;;13.95;11.93;;;12.80;92.60;;;;;;6185094;23;20142;-80
2023/03/27 06:57:59;;;;;;;17.80;13.65;;;12.90;92.50;;;;;;6184703;23;20008;-79
2023/03/27 07:00:27;;;;;;;15.65;12.68;;;12.90;92.50;;;;;;6185100;23;20012;-79
2023/03/27 07:02:55;;;;;;;14.45;12.07;;;13.00;92.40;;;;;;6158891;23;20005;-80
2023/03/27 07:05:22;;;;;;;17.48;13.88;;;13.00;92.30;;;;;;6184668;23;20011;-79
2023/03/27 07:07:48;;;;;;;19.52;14.82;;;13.00;92.20;;;;;;6184461;23;20005;-79
2023/03/27 07:10:14;;;;;;;14.27;12.10;;;13.10;92.20;;;;;;6184979;23;20008;-79
2023/03/27 07:12:47;;;;;;;15.60;12.20;;;13.10;92.10;;;;;;6185083;23;20327;-79
2023/03/27 07:15:13;;;;;;;13.07;11.65;;;13.20;92.10;;;;;;6184412;23;20080;-79
2023/03/27 07:17:43;;;;;;;15.27;12.23;;;13.30;91.80;;;;;;6185233;23;20024;-79
2023/03/27 07:20:11;;;;;;;13.60;11.75;;;13.30;92.00;;;;;;6185060;23;20003;-80
2023/03/27 07:22:40;;;;;;;17.42;13.88;;;13.40;91.90;;;;;;6185206;23;20048;-79
2023/03/27 07:25:06;;;;;;;17.65;14.45;;;13.30;91.60;;;;;;6184470;23;19997;-79
2023/03/27 07:27:32;;;;;;;12.48;10.48;;;13.30;91.50;;;;;;6184532;23;20009;-79
2023/03/27 07:30:00;;;;;;;15.02;12.07;;;13.20;91.60;;;;;;6184982;23;20048;-79
2023/03/27 07:32:28;;;;;;;15.45;12.52;;;13.20;91.70;;;;;;6184301;23;20046;-79
2023/03/27 07:34:55;;;;;;;15.15;11.65;;;13.10;91.90;;;;;;6158198;23;20005;-80
2023/03/27 07:37:22;;;;;;;13.93;11.65;;;13.10;92.00;;;;;;6184554;23;20025;-79
2023/03/27 07:39:47;;;;;;;17.35;15.27;;;13.20;91.90;;;;;;6184974;23;20005;-79
2023/03/27 07:42:13;;;;;;;15.15;11.40;;;13.20;92.10;;;;;;6183083;23;20032;-79
2023/03/27 07:44:39;;;;;;;12.43;10.55;;;13.20;92.00;;;;;;6179117;23;20009;-79
2023/03/27 07:47:05;;;;;;;10.95;9.75;;;13.40;92.20;;;;;;6181471;23;20016;-80
2023/03/27 07:49:31;;;;;;;11.98;10.18;;;13.40;91.90;;;;;;6183206;23;20058;-80
2023/03/27 07:51:59;;;;;;;12.10;9.90;;;13.50;91.70;;;;;;6185616;23;20424;-91
2023/03/27 07:54:25;;;;;;;12.63;9.90;;;13.50;91.60;;;;;;6184433;23;20012;-90
2023/03/27 07:56:52;;;;;;;12.70;11.25;;;13.60;91.50;;;;;;6157489;23;20443;-91
2023/03/27 07:59:20;;;;;;;10.85;8.95;;;13.50;91.30;;;;;;6185164;23;20008;-92
2023/03/27 08:01:49;;;;;;;11.13;9.52;;;;;;;;;;6159320;23;20005;-91
2023/03/27 08:04:16;;;;;;;10.88;9.40;;;13.60;91.20;;;;;;6185602;23;20005;-91
2023/03/27 08:06:42;;;;;;;10.95;9.25;;;13.60;91.20;;;;;;6186262;23;20016;-91
2023/03/27 08:09:09;;;;;;;11.55;9.73;;;13.60;91.20;;;;;;6185304;23;20005;-91
2023/03/27 08:11:36;;;;;;;10.32;8.40;;;13.70;91.20;;;;;;6161515;23;20070;-91
2023/03/27 08:14:02;;;;;;;12.35;9.05;;;13.70;91.00;;;;;;6187694;23;20013;-91
2023/03/27 08:16:28;;;;;;;10.43;8.95;;;13.70;91.10;;;;;;6182430;23;20040;-81
2023/03/27 08:18:54;;;;;;;12.55;9.63;;;13.80;91.00;;;;;;6182541;23;20012;-81
2023/03/27 08:21:20;;;;;;;13.90;11.05;;;13.80;91.20;;;;;;6181063;23;20059;-80
2023/03/27 08:23:46;;;;;;;10.43;8.82;;;13.80;90.80;;;;;;6154946;23;20088;-82
2023/03/27 08:26:13;;;;;;;11.20;8.85;;;13.80;91.00;;;;;;6182734;23;20076;-82
2023/03/27 08:28:39;;;;;;;14.35;10.98;;;13.80;91.10;;;;;;6182932;23;19997;-80
2023/03/27 08:31:14;;;;;;;10.57;8.77;;;13.80;90.80;;;;;;6182788;23;20355;-81
2023/03/27 08:33:42;;;;;;;9.98;8.40;;;13.80;90.80;;;;;;6181809;23;20453;-81
2023/03/27 08:36:10;;;;;;;11.15;8.70;;;13.80;90.50;;;;;;6156078;23;20463;-80
2023/03/27 08:38:38;;;;;;;12.98;9.77;;;13.80;90.70;;;;;;6184105;23;20008;-81
2023/03/27 08:41:04;;;;;;;9.55;8.35;;;13.80;90.80;;;;;;6184610;23;20012;-81
2023/03/27 08:43:37;;;;;;;10.10;8.05;;;13.80;90.80;;;;;;6183132;23;20012;-80
2023/03/27 08:46:19;;;;;;;10.05;8.55;;;13.80;90.60;;;;;;6157548;23;20013;-81
2023/03/27 08:49:00;;;;;;;10.63;7.85;;;13.90;90.80;;;;;;6184696;23;20074;-81
2023/03/27 08:51:33;;;;;;;8.88;7.68;;;13.90;90.60;;;;;;6183453;23;20328;-81
2023/03/27 08:54:20;;;;;;;8.90;7.60;;;13.90;90.70;;;;;;6183790;23;20431;-81
2023/03/27 08:56:47;;;;;;;10.85;8.63;;;14.10;90.50;;;;;;6184632;23;20005;-81
2023/03/27 08:59:23;;;;;;;9.13;7.78;;;14.10;90.10;;;;;;6183688;23;20005;-81
2023/03/27 09:02:06;;;;;;;10.45;8.45;;;14.20;90.20;;;;;;6185165;23;20005;-81
2023/03/27 09:04:41;;;;;;;9.45;7.88;;;14.10;89.70;;;;;;6184272;23;20005;-81
2023/03/27 09:07:31;;;;;;;9.13;8.10;;;14.10;90.10;;;;;;6184503;23;20001;-81
2023/03/27 09:10:16;;;;;;;10.48;9.32;;;14.20;89.80;;;;;;6184254;23;20458;-81
2023/03/27 09:13:03;;;;;;;8.52;6.88;;;14.00;89.00;;;;;;6157923;23;20009;-81
2023/03/27 09:15:33;;;;;;;8.63;5.70;;;14.10;89.80;;;;;;6181862;23;20079;-82
2023/03/27 09:18:01;;;;;;;;;;;14.30;90.20;;;;;;6184219;23;20005;-81
2023/03/27 09:20:33;;;;;;;10.55;7.45;;;14.50;90.00;;;;;;6158078;23;19983;-81
2023/03/27 09:23:16;;;;;;;10.18;7.13;;;14.70;89.30;;;;;;6184393;23;20001;-81
2023/03/27 09:25:48;;;;;;;7.72;6.00;;;14.80;88.70;;;;;;6155542;23;20096;-82
2023/03/27 09:28:22;;;;;;;8.75;7.15;;;15.00;87.60;;;;;;6183068;23;20339;-81
2023/03/27 09:30:48;;;;;;;9.18;7.38;;;15.10;86.90;;;;;;6184289;23;20009;-80
2023/03/27 09:33:14;;;;;;;7.80;6.80;;;15.20;86.80;;;;;;6184653;23;20360;-80
2023/03/27 09:35:41;;;;;;;8.88;6.88;;;15.20;86.60;;;;;;6185767;23;20011;-80
2023/03/27 09:38:30;;;;;;;8.35;6.57;;;15.30;86.90;;;;;;6185677;23;20001;-80
2023/03/27 09:41:09;;;;;;;9.53;7.43;;;15.60;86.90;;;;;;6185823;23;20001;-81
2023/03/27 09:43:52;;;;;;;7.15;6.30;;;15.80;85.70;;;;;;6185705;23;20001;-81
2023/03/27 09:46:20;;;;;;;7.90;6.50;;;16.10;85.30;;;;;;6185505;23;20009;-81
2023/03/27 09:48:53;;;;;;;6.97;5.75;;;16.30;84.50;;;;;;6185506;23;19997;-81
2023/03/27 09:51:36;;;;;;;9.60;7.05;;;16.50;83.80;;;;;;6185683;23;19997;-81
2023/03/27 09:54:02;;;;;;;10.63;9.00;;;16.70;81.50;;;;;;6185622;23;20036;-81
2023/03/27 09:56:29;;;;;;;7.85;6.65;;;16.70;79.70;;;;;;6185361;23;20005;-80
2023/03/27 09:58:56;;;;;;;6.88;6.07;;;16.80;81.10;;;;;;6185544;23;20429;-81
2023/03/27 10:01:37;;;;;;;7.20;6.43;;;16.90;82.00;;;;;;6185574;23;20001;-81
2023/03/27 10:04:12;;;;;;;7.63;6.82;;;17.20;81.50;;;;;;6185848;23;20005;-81
2023/03/27 10:06:44;;;;;;;7.95;6.47;;;17.40;79.90;;;;;;6185220;23;20443;-81
2023/03/27 10:09:33;;;;;;;7.25;5.60;;;17.50;80.60;;;;;;6184485;23;20001;-81
2023/03/27 10:12:05;;;;;;;8.15;6.88;;;17.80;80.50;;;;;;6183570;23;20016;-81
2023/03/27 10:14:40;;;;;;;8.13;7.00;;;18.10;76.00;;;;;;6185701;23;20001;-81
2023/03/27 10:17:22;;;;;;;7.80;6.30;;;18.10;76.60;;;;;;6183686;23;20013;-77
2023/03/27 10:19:51;;;;;;;6.88;6.13;;;18.20;78.30;;;;;;6185129;23;20185;-78
2023/03/27 10:22:25;;;;;;;6.82;5.75;;;18.40;78.20;;;;;;6184429;23;20502;-77
2023/03/27 10:24:52;;;;;;;7.70;5.88;;;18.40;77.80;;;;;;6185384;23;20004;-78
2023/03/27 10:27:26;;;;;;;7.18;5.05;;;18.60;78.20;;;;;;6185999;23;20040;-80
2023/03/27 10:29:53;;;;;;;8.35;6.30;;;18.80;77.50;;;;;;6189425;23;19997;-79
2023/03/27 10:32:46;;;;;;;12.60;5.63;;;19.00;77.80;;;;;;6188403;23;20124;-79
2023/03/27 10:35:42;;;;;;;6.40;5.03;;;19.20;77.20;;;;;;6189596;23;20001;-79
2023/03/27 10:38:16;;;;;;;5.40;4.72;;;19.40;77.40;;;;;;6166931;23;20036;-79
2023/03/27 10:40:49;;;;;;;12.38;6.13;;;19.70;76.40;;;;;;6188317;23;20056;-79
2023/03/27 10:43:35;;;;;;;6.70;4.07;;;19.90;74.00;;;;;;6192246;23;20056;-79
2023/03/27 10:46:12;;;;;;;6.60;5.10;;;20.10;75.00;;;;;;6192268;23;20430;-80
2023/03/27 10:49:02;;;;;;;7.63;5.20;;;20.30;75.50;;;;;;6192467;23;20080;-79
2023/03/27 10:51:59;;;;;;;6.70;6.00;;;20.60;74.70;;;;;;6190758;23;20001;-81
2023/03/27 10:54:50;;;;;;;34.60;6.30;;;20.70;73.30;;;;;;6191403;23;20001;-79
2023/03/27 10:57:32;;;;;;;5.88;5.15;;;21.00;72.60;;;;;;6192729;23;20463;-78
2023/03/27 11:00:25;;;;;;;6.95;5.18;;;21.20;71.90;;;;;;6191321;23;20005;-79
2023/03/27 11:03:09;;;;;;;8.77;5.60;;;21.20;70.50;;;;;;6191902;23;20059;-79
2023/03/27 11:05:47;;;;;;;8.60;5.57;;;21.20;70.20;;;;;;6165956;23;20009;-78
2023/03/27 11:08:20;;;;;;;7.75;6.05;;;21.20;69.70;;;;;;6190937;23;20005;-79
2023/03/27 11:10:48;;;;;;;4.75;4.10;;;21.20;68.50;;;;;;6190523;23;20020;-79
2023/03/27 11:13:37;;;;;;;5.15;4.63;;;21.20;69.20;;;;;;6192195;23;20064;-79
2023/03/27 11:16:31;;;;;;;4.95;4.45;;;21.30;69.30;;;;;;6191695;23;20512;-78
2023/03/27 11:19:27;;;;;;;6.35;4.40;;;21.50;69.70;;;;;;6165705;23;20011;-79
2023/03/27 11:21:57;;;;;;;7.18;4.55;;;21.70;69.20;;;;;;6149455;23;20343;-80
2023/03/27 11:24:39;;;;;;;5.60;4.95;;;21.80;69.40;;;;;;6185364;23;20009;-80
2023/03/27 11:27:19;;;;;;;5.60;5.07;;;21.90;66.40;;;;;;6184460;23;20009;-79
2023/03/27 11:30:04;;;;;;;6.47;4.10;;;21.90;66.90;;;;;;6182713;23;20030;-79
2023/03/27 11:32:57;;;;;;;6.32;4.82;;;21.90;66.60;;;;;;6184504;23;19997;-80
2023/03/27 11:35:27;;;;;;;4.18;3.78;;;22.00;67.30;;;;;;6184854;23;20051;-80
2023/03/27 11:38:05;;;;;;;5.10;4.45;;;22.30;67.80;;;;;;6184675;23;20031;-80
2023/03/27 11:40:43;;;;;;;4.20;3.80;;;22.60;66.70;;;;;;6184848;23;20024;-80
2023/03/27 11:43:14;;;;;;;5.38;4.53;;;23.30;65.10;;;;;;6184505;23;20001;-80
2023/03/27 11:46:07;;;;;;;5.18;3.88;;;24.00;63.00;;;;;;6184828;23;20008;-80
2023/03/27 11:48:56;;;;;;;6.60;4.28;;;24.50;61.90;;;;;;6158184;23;20024;-80
2023/03/27 11:51:48;;;;;;;6.70;5.13;;;25.20;60.00;;;;;;6184441;23;19997;-80
2023/03/27 11:54:30;;;;;;;8.40;7.45;;;25.60;58.90;;;;;;6183834;23;20005;-80
2023/03/27 11:56:59;;;;;;;8.25;7.40;;;26.40;58.40;;;;;;6185437;23;20012;-80
2023/03/27 11:59:47;;;;;;;8.80;7.95;;;27.00;57.30;;;;;;6183544;23;20005;-80
2023/03/27 12:02:30;;;;;;;10.02;9.02;;;28.10;54.90;;;;;;6185525;23;20021;-79
2023/03/27 12:04:59;;;;;;;10.00;9.00;;;28.20;55.30;;;;;;6184889;23;20001;-80
2023/03/27 12:07:25;;;;;;;11.32;9.18;;;29.00;54.30;;;;;;6184494;23;20008;-81
2023/03/27 12:10:36;;;;;;;11.50;9.88;;;29.50;53.30;;;;;;6185126;23;20005;-80
2023/03/27 12:13:37;;;;;;;13.10;11.10;;;29.60;51.20;;;;;;6173560;23;20079;-83
2023/03/27 12:16:25;;;;;;;12.88;11.10;;;29.30;50.90;;;;;;6156447;23;20013;-83
2023/03/27 12:19:21;;;;;;;13.40;11.82;;;29.20;51.10;;;;;;6184168;23;20005;-82
2023/03/27 12:22:01;;;;;;;11.95;10.75;;;29.00;49.90;;;;;;6184544;23;20009;-81
2023/03/27 12:24:32;;;;;;;;;;;28.90;50.40;;;;;;6184386;23;20024;-82
2023/03/27 12:27:19;;;;;;;12.23;11.02;;;28.80;49.90;;;;;;6175047;23;19922;-81
2023/03/27 12:30:01;;;;;;;14.65;11.88;;;28.60;50.00;;;;;;6214071;23;20311;-81
2023/03/27 12:32:39;;;;;;;11.20;10.00;;;28.60;49.80;;;;;;6214269;23;20000;-82
2023/03/27 12:35:12;;;;;;;15.13;10.75;;;28.60;50.50;;;;;;6214229;23;20331;-81
2023/03/27 12:37:49;;;;;;;12.77;10.90;;;28.70;49.80;;;;;;6214198;23;20017;-82
2023/03/27 12:40:28;;;;;;;12.98;10.63;;;28.70;49.40;;;;;;6213412;23;20027;-81
2023/03/27 12:43:15;;;;;;;11.27;10.23;;;28.90;48.80;;;;;;6214110;23;20007;-81
2023/03/27 12:46:02;;;;;;;11.57;10.45;;;29.10;48.90;;;;;;6187027;23;20017;-82
2023/03/27 12:48:28;;;;;;;16.50;12.13;;;29.40;47.40;;;;;;6187019;23;20103;-82
2023/03/27 12:50:56;;;;;;;13.48;11.88;;;29.70;47.50;;;;;;6213475;23;20431;-82
2023/03/27 12:53:28;;;;;;;12.98;11.60;;;29.90;46.10;;;;;;6213807;23;20003;-82
2023/03/27 12:56:11;;;;;;;12.85;11.43;;;30.00;46.00;;;;;;6213374;23;20012;-82
2023/03/27 12:58:38;;;;;;;13.52;11.48;;;30.20;45.70;;;;;;6212100;23;20000;-82
2023/03/27 13:01:08;;;;;;;12.23;10.93;;;30.10;45.30;;;;;;6213833;23;20004;-82
2023/03/27 13:03:55;;;;;;;13.05;11.60;;;30.20;45.80;;;;;;6186559;23;20012;-82
2023/03/27 13:06:36;;;;;;;13.85;11.73;;;30.20;45.30;;;;;;6213167;23;20001;-82
2023/03/27 13:09:31;;;;;;;13.18;11.88;;;30.30;46.00;;;;;;6213407;23;20431;-82
2023/03/27 13:12:19;;;;;;;12.73;11.48;;;30.30;45.40;;;;;;6213667;23;20000;-82